sensor_id;sensor_type;location;lat;lon;timestamp;P1;durP1;ratioP1;P2;durP2;ratioP2
12762;SDS011;6445;52.490;13.378;2023-04-15T00:00:25;49.38;;;30.48;;
12762;SDS011;6445;52.490;13.378;2023-04-15T00:02:50;43.45;;;28.98;;
12762;SDS011;6445;52.490;13.378;2023-04-15T00:05:16;44.70;;;29.00;;
12762;SDS011;6445;52.490;13.378;2023-04-15T00:07:42;48.03;;;29.90;;
12762;SDS011;6445;52.490;13.378;2023-04-15T00:10:07;48.38;;;29.77;;
12762;SDS011;6445;52.490;13.378;2023-04-15T00:12:33;48.95;;;31.05;;
12762;SDS011;6445;52.490;13.378;2023-04-15T00:14:58;51.60;;;31.10;;
12762;SDS011;6445;52.490;13.378;2023-04-15T00:17:24;47.22;;;29.88;;
12762;SDS011;6445;52.490;13.378;2023-04-15T00:19:49;48.72;;;30.52;;
12762;SDS011;6445;52.490;13.378;2023-04-15T00:22:14;55.38;;;32.58;;
12762;SDS011;6445;52.490;13.378;2023-04-15T00:24:39;51.38;;;32.00;;
12762;SDS011;6445;52.490;13.378;2023-04-15T00:27:05;53.25;;;31.25;;
12762;SDS011;6445;52.490;13.378;2023-04-15T00:29:31;49.75;;;31.23;;
12762;SDS011;6445;52.490;13.378;2023-04-15T00:31:56;56.05;;;31.88;;
12762;SDS011;6445;52.490;13.378;2023-04-15T00:34:22;53.88;;;32.70;;
12762;SDS011;6445;52.490;13.378;2023-04-15T00:36:48;53.42;;;32.83;;
12762;SDS011;6445;52.490;13.378;2023-04-15T00:39:14;58.78;;;33.95;;
12762;SDS011;6445;52.490;13.378;2023-04-15T00:41:40;54.38;;;32.25;;
12762;SDS011;6445;52.490;13.378;2023-04-15T00:44:06;55.63;;;33.50;;
12762;SDS011;6445;52.490;13.378;2023-04-15T00:46:32;56.28;;;33.47;;
12762;SDS011;6445;52.490;13.378;2023-04-15T00:49:00;55.20;;;34.13;;
12762;SDS011;6445;52.490;13.378;2023-04-15T00:51:27;58.67;;;35.17;;
12762;SDS011;6445;52.490;13.378;2023-04-15T00:53:53;58.90;;;34.83;;
12762;SDS011;6445;52.490;13.378;2023-04-15T00:56:19;61.85;;;35.50;;
12762;SDS011;6445;52.490;13.378;2023-04-15T00:58:48;56.55;;;33.97;;
12762;SDS011;6445;52.490;13.378;2023-04-15T01:01:13;57.55;;;34.38;;
12762;SDS011;6445;52.490;13.378;2023-04-15T01:03:38;56.08;;;32.45;;
12762;SDS011;6445;52.490;13.378;2023-04-15T01:06:04;59.85;;;34.90;;
12762;SDS011;6445;52.490;13.378;2023-04-15T01:08:29;57.83;;;34.47;;
12762;SDS011;6445;52.490;13.378;2023-04-15T01:10:55;57.55;;;33.78;;
12762;SDS011;6445;52.490;13.378;2023-04-15T01:13:22;59.70;;;34.67;;
12762;SDS011;6445;52.490;13.378;2023-04-15T01:15:48;59.78;;;34.97;;
12762;SDS011;6445;52.490;13.378;2023-04-15T01:18:14;62.92;;;34.65;;
12762;SDS011;6445;52.490;13.378;2023-04-15T01:20:40;61.58;;;35.40;;
12762;SDS011;6445;52.490;13.378;2023-04-15T01:23:05;59.38;;;35.28;;
12762;SDS011;6445;52.490;13.378;2023-04-15T01:25:31;60.25;;;36.05;;
12762;SDS011;6445;52.490;13.378;2023-04-15T01:27:58;60.20;;;34.55;;
12762;SDS011;6445;52.490;13.378;2023-04-15T01:30:23;61.95;;;35.67;;
12762;SDS011;6445;52.490;13.378;2023-04-15T01:32:49;66.10;;;36.65;;
12762;SDS011;6445;52.490;13.378;2023-04-15T01:35:15;62.15;;;36.03;;
12762;SDS011;6445;52.490;13.378;2023-04-15T01:37:41;64.95;;;36.05;;
12762;SDS011;6445;52.490;13.378;2023-04-15T01:40:06;65.63;;;36.40;;
12762;SDS011;6445;52.490;13.378;2023-04-15T01:42:33;64.45;;;36.75;;
12762;SDS011;6445;52.490;13.378;2023-04-15T01:44:59;65.68;;;35.85;;
12762;SDS011;6445;52.490;13.378;2023-04-15T01:47:25;62.58;;;34.95;;
12762;SDS011;6445;52.490;13.378;2023-04-15T01:49:51;66.47;;;37.40;;
12762;SDS011;6445;52.490;13.378;2023-04-15T01:52:16;66.13;;;36.88;;
12762;SDS011;6445;52.490;13.378;2023-04-15T01:54:42;65.47;;;37.22;;
12762;SDS011;6445;52.490;13.378;2023-04-15T01:57:07;65.93;;;36.17;;
12762;SDS011;6445;52.490;13.378;2023-04-15T01:59:33;68.20;;;36.78;;
12762;SDS011;6445;52.490;13.378;2023-04-15T02:01:58;71.43;;;37.30;;
12762;SDS011;6445;52.490;13.378;2023-04-15T02:04:24;69.65;;;37.85;;
12762;SDS011;6445;52.490;13.378;2023-04-15T02:06:49;72.70;;;36.47;;
12762;SDS011;6445;52.490;13.378;2023-04-15T02:09:14;67.82;;;35.40;;
12762;SDS011;6445;52.490;13.378;2023-04-15T02:11:40;72.90;;;37.40;;
12762;SDS011;6445;52.490;13.378;2023-04-15T02:14:05;73.47;;;38.38;;
12762;SDS011;6445;52.490;13.378;2023-04-15T02:16:31;67.38;;;36.78;;
12762;SDS011;6445;52.490;13.378;2023-04-15T02:18:56;69.22;;;37.47;;
12762;SDS011;6445;52.490;13.378;2023-04-15T02:21:22;65.65;;;36.60;;
12762;SDS011;6445;52.490;13.378;2023-04-15T02:23:47;65.05;;;36.17;;
12762;SDS011;6445;52.490;13.378;2023-04-15T02:26:12;68.97;;;35.40;;
12762;SDS011;6445;52.490;13.378;2023-04-15T02:28:38;66.55;;;36.08;;
12762;SDS011;6445;52.490;13.378;2023-04-15T02:31:04;62.28;;;34.15;;
12762;SDS011;6445;52.490;13.378;2023-04-15T02:33:33;58.85;;;34.08;;
12762;SDS011;6445;52.490;13.378;2023-04-15T02:35:58;63.38;;;35.05;;
12762;SDS011;6445;52.490;13.378;2023-04-15T02:38:24;65.50;;;36.22;;
12762;SDS011;6445;52.490;13.378;2023-04-15T02:40:49;64.28;;;36.30;;
12762;SDS011;6445;52.490;13.378;2023-04-15T02:43:15;66.53;;;35.95;;
12762;SDS011;6445;52.490;13.378;2023-04-15T02:45:41;64.25;;;35.40;;
12762;SDS011;6445;52.490;13.378;2023-04-15T02:48:07;69.10;;;36.22;;
12762;SDS011;6445;52.490;13.378;2023-04-15T02:50:33;60.95;;;33.92;;
12762;SDS011;6445;52.490;13.378;2023-04-15T02:52:58;63.30;;;35.85;;
12762;SDS011;6445;52.490;13.378;2023-04-15T02:55:25;67.13;;;35.53;;
12762;SDS011;6445;52.490;13.378;2023-04-15T02:57:50;60.47;;;34.72;;
12762;SDS011;6445;52.490;13.378;2023-04-15T03:00:16;67.75;;;36.13;;
12762;SDS011;6445;52.490;13.378;2023-04-15T03:02:41;65.63;;;35.42;;
12762;SDS011;6445;52.490;13.378;2023-04-15T03:05:10;64.57;;;33.85;;
12762;SDS011;6445;52.490;13.378;2023-04-15T03:07:36;64.03;;;36.45;;
12762;SDS011;6445;52.490;13.378;2023-04-15T03:10:02;64.25;;;34.13;;
12762;SDS011;6445;52.490;13.378;2023-04-15T03:12:27;61.72;;;35.83;;
12762;SDS011;6445;52.490;13.378;2023-04-15T03:14:54;65.70;;;35.72;;
12762;SDS011;6445;52.490;13.378;2023-04-15T03:17:19;61.53;;;34.97;;
12762;SDS011;6445;52.490;13.378;2023-04-15T03:19:44;66.00;;;36.60;;
12762;SDS011;6445;52.490;13.378;2023-04-15T03:22:10;64.38;;;36.15;;
12762;SDS011;6445;52.490;13.378;2023-04-15T03:24:35;59.47;;;35.42;;
12762;SDS011;6445;52.490;13.378;2023-04-15T03:27:00;62.78;;;34.53;;
12762;SDS011;6445;52.490;13.378;2023-04-15T03:29:26;60.53;;;34.10;;
12762;SDS011;6445;52.490;13.378;2023-04-15T03:31:51;60.88;;;34.13;;
12762;SDS011;6445;52.490;13.378;2023-04-15T03:34:17;62.47;;;34.58;;
12762;SDS011;6445;52.490;13.378;2023-04-15T03:36:42;57.47;;;33.97;;
12762;SDS011;6445;52.490;13.378;2023-04-15T03:39:07;58.08;;;33.50;;
12762;SDS011;6445;52.490;13.378;2023-04-15T03:41:32;58.90;;;34.40;;
12762;SDS011;6445;52.490;13.378;2023-04-15T03:43:58;51.30;;;32.25;;
12762;SDS011;6445;52.490;13.378;2023-04-15T03:46:23;57.20;;;33.15;;
12762;SDS011;6445;52.490;13.378;2023-04-15T03:48:49;57.17;;;34.08;;
12762;SDS011;6445;52.490;13.378;2023-04-15T03:51:15;55.80;;;32.42;;
12762;SDS011;6445;52.490;13.378;2023-04-15T03:53:40;54.95;;;32.10;;
12762;SDS011;6445;52.490;13.378;2023-04-15T03:56:05;57.83;;;32.30;;
12762;SDS011;6445;52.490;13.378;2023-04-15T03:58:30;54.58;;;32.65;;
12762;SDS011;6445;52.490;13.378;2023-04-15T04:00:56;50.55;;;30.80;;
12762;SDS011;6445;52.490;13.378;2023-04-15T04:03:21;59.15;;;31.63;;
12762;SDS011;6445;52.490;13.378;2023-04-15T04:05:46;48.53;;;29.85;;
12762;SDS011;6445;52.490;13.378;2023-04-15T04:08:11;51.53;;;29.60;;
12762;SDS011;6445;52.490;13.378;2023-04-15T04:10:40;51.10;;;29.40;;
12762;SDS011;6445;52.490;13.378;2023-04-15T04:13:06;50.60;;;30.45;;
12762;SDS011;6445;52.490;13.378;2023-04-15T04:15:31;48.67;;;30.27;;
12762;SDS011;6445;52.490;13.378;2023-04-15T04:17:56;47.80;;;30.00;;
12762;SDS011;6445;52.490;13.378;2023-04-15T04:20:21;44.20;;;28.65;;
12762;SDS011;6445;52.490;13.378;2023-04-15T04:22:47;50.20;;;30.83;;
12762;SDS011;6445;52.490;13.378;2023-04-15T04:25:12;45.70;;;28.10;;
12762;SDS011;6445;52.490;13.378;2023-04-15T04:27:38;47.83;;;29.40;;
12762;SDS011;6445;52.490;13.378;2023-04-15T04:30:04;42.58;;;27.85;;
12762;SDS011;6445;52.490;13.378;2023-04-15T04:32:30;42.00;;;27.70;;
12762;SDS011;6445;52.490;13.378;2023-04-15T04:34:56;43.20;;;27.75;;
12762;SDS011;6445;52.490;13.378;2023-04-15T04:37:21;42.53;;;27.77;;
12762;SDS011;6445;52.490;13.378;2023-04-15T04:39:47;43.03;;;28.25;;
12762;SDS011;6445;52.490;13.378;2023-04-15T04:42:12;45.72;;;27.17;;
12762;SDS011;6445;52.490;13.378;2023-04-15T04:44:38;43.95;;;26.33;;
12762;SDS011;6445;52.490;13.378;2023-04-15T04:47:03;38.30;;;26.15;;
12762;SDS011;6445;52.490;13.378;2023-04-15T04:49:28;43.03;;;26.42;;
12762;SDS011;6445;52.490;13.378;2023-04-15T04:51:53;42.33;;;27.08;;
12762;SDS011;6445;52.490;13.378;2023-04-15T04:54:19;42.42;;;26.40;;
12762;SDS011;6445;52.490;13.378;2023-04-15T04:56:45;35.33;;;24.92;;
12762;SDS011;6445;52.490;13.378;2023-04-15T04:59:11;38.08;;;26.08;;
12762;SDS011;6445;52.490;13.378;2023-04-15T05:01:36;35.08;;;24.85;;
12762;SDS011;6445;52.490;13.378;2023-04-15T05:04:01;39.92;;;25.98;;
12762;SDS011;6445;52.490;13.378;2023-04-15T05:06:28;36.38;;;24.50;;
12762;SDS011;6445;52.490;13.378;2023-04-15T05:08:55;38.05;;;24.98;;
12762;SDS011;6445;52.490;13.378;2023-04-15T05:11:20;39.42;;;24.35;;
12762;SDS011;6445;52.490;13.378;2023-04-15T05:13:45;35.88;;;24.20;;
12762;SDS011;6445;52.490;13.378;2023-04-15T05:16:11;33.47;;;23.17;;
12762;SDS011;6445;52.490;13.378;2023-04-15T05:18:36;34.17;;;23.88;;
12762;SDS011;6445;52.490;13.378;2023-04-15T05:21:01;38.08;;;22.42;;
12762;SDS011;6445;52.490;13.378;2023-04-15T05:23:27;34.75;;;23.52;;
12762;SDS011;6445;52.490;13.378;2023-04-15T05:25:52;36.17;;;23.60;;
12762;SDS011;6445;52.490;13.378;2023-04-15T05:28:17;33.38;;;23.13;;
12762;SDS011;6445;52.490;13.378;2023-04-15T05:30:42;28.27;;;21.63;;
12762;SDS011;6445;52.490;13.378;2023-04-15T05:33:08;30.55;;;21.40;;
12762;SDS011;6445;52.490;13.378;2023-04-15T05:35:33;28.45;;;20.98;;
12762;SDS011;6445;52.490;13.378;2023-04-15T05:37:58;30.95;;;22.23;;
12762;SDS011;6445;52.490;13.378;2023-04-15T05:40:24;29.88;;;21.27;;
12762;SDS011;6445;52.490;13.378;2023-04-15T05:42:49;30.00;;;20.33;;
12762;SDS011;6445;52.490;13.378;2023-04-15T05:45:14;32.40;;;21.33;;
12762;SDS011;6445;52.490;13.378;2023-04-15T05:47:39;34.10;;;22.50;;
12762;SDS011;6445;52.490;13.378;2023-04-15T05:50:05;30.30;;;20.90;;
12762;SDS011;6445;52.490;13.378;2023-04-15T05:52:30;29.63;;;19.33;;
12762;SDS011;6445;52.490;13.378;2023-04-15T05:54:56;27.65;;;19.40;;
12762;SDS011;6445;52.490;13.378;2023-04-15T05:57:21;25.13;;;19.30;;
12762;SDS011;6445;52.490;13.378;2023-04-15T05:59:47;27.55;;;18.50;;
12762;SDS011;6445;52.490;13.378;2023-04-15T06:02:12;24.75;;;18.05;;
12762;SDS011;6445;52.490;13.378;2023-04-15T06:04:38;22.50;;;17.50;;
12762;SDS011;6445;52.490;13.378;2023-04-15T06:07:03;24.33;;;17.08;;
12762;SDS011;6445;52.490;13.378;2023-04-15T06:09:28;24.35;;;17.75;;
12762;SDS011;6445;52.490;13.378;2023-04-15T06:11:54;22.25;;;17.20;;
12762;SDS011;6445;52.490;13.378;2023-04-15T06:14:20;22.08;;;17.05;;
12762;SDS011;6445;52.490;13.378;2023-04-15T06:16:46;20.52;;;16.15;;
12762;SDS011;6445;52.490;13.378;2023-04-15T06:19:11;26.73;;;17.35;;
12762;SDS011;6445;52.490;13.378;2023-04-15T06:21:36;20.83;;;16.08;;
12762;SDS011;6445;52.490;13.378;2023-04-15T06:24:02;20.67;;;15.52;;
12762;SDS011;6445;52.490;13.378;2023-04-15T06:26:27;18.80;;;15.27;;
12762;SDS011;6445;52.490;13.378;2023-04-15T06:28:53;22.42;;;15.45;;
12762;SDS011;6445;52.490;13.378;2023-04-15T06:31:18;20.48;;;15.45;;
12762;SDS011;6445;52.490;13.378;2023-04-15T06:33:43;21.35;;;16.10;;
12762;SDS011;6445;52.490;13.378;2023-04-15T06:36:09;21.20;;;15.07;;
12762;SDS011;6445;52.490;13.378;2023-04-15T06:38:34;21.23;;;15.30;;
12762;SDS011;6445;52.490;13.378;2023-04-15T06:41:00;20.85;;;14.50;;
12762;SDS011;6445;52.490;13.378;2023-04-15T06:43:25;19.80;;;14.70;;
12762;SDS011;6445;52.490;13.378;2023-04-15T06:45:50;17.33;;;14.65;;
12762;SDS011;6445;52.490;13.378;2023-04-15T06:48:16;17.77;;;14.40;;
12762;SDS011;6445;52.490;13.378;2023-04-15T06:50:41;16.23;;;13.40;;
12762;SDS011;6445;52.490;13.378;2023-04-15T06:53:07;16.95;;;14.00;;
12762;SDS011;6445;52.490;13.378;2023-04-15T06:55:32;17.77;;;12.88;;
12762;SDS011;6445;52.490;13.378;2023-04-15T06:57:58;17.08;;;12.60;;
12762;SDS011;6445;52.490;13.378;2023-04-15T07:00:23;17.42;;;12.88;;
12762;SDS011;6445;52.490;13.378;2023-04-15T07:02:49;15.00;;;12.13;;
12762;SDS011;6445;52.490;13.378;2023-04-15T07:05:15;16.48;;;13.18;;
12762;SDS011;6445;52.490;13.378;2023-04-15T07:07:40;18.83;;;13.55;;
12762;SDS011;6445;52.490;13.378;2023-04-15T07:10:06;24.92;;;17.92;;
12762;SDS011;6445;52.490;13.378;2023-04-15T07:12:32;14.68;;;12.77;;
12762;SDS011;6445;52.490;13.378;2023-04-15T07:14:57;15.85;;;12.52;;
12762;SDS011;6445;52.490;13.378;2023-04-15T07:17:22;15.48;;;12.60;;
12762;SDS011;6445;52.490;13.378;2023-04-15T07:19:48;17.08;;;13.95;;
12762;SDS011;6445;52.490;13.378;2023-04-15T07:22:13;18.65;;;15.32;;
12762;SDS011;6445;52.490;13.378;2023-04-15T07:24:38;15.00;;;11.52;;
12762;SDS011;6445;52.490;13.378;2023-04-15T07:27:03;13.88;;;11.93;;
12762;SDS011;6445;52.490;13.378;2023-04-15T07:29:29;15.00;;;13.05;;
12762;SDS011;6445;52.490;13.378;2023-04-15T07:31:54;17.02;;;12.15;;
12762;SDS011;6445;52.490;13.378;2023-04-15T07:34:21;15.00;;;12.27;;
12762;SDS011;6445;52.490;13.378;2023-04-15T07:36:46;17.35;;;14.18;;
12762;SDS011;6445;52.490;13.378;2023-04-15T07:39:18;15.57;;;12.43;;
12762;SDS011;6445;52.490;13.378;2023-04-15T07:41:43;20.23;;;16.45;;
12762;SDS011;6445;52.490;13.378;2023-04-15T07:44:09;27.25;;;22.75;;
12762;SDS011;6445;52.490;13.378;2023-04-15T07:46:34;18.67;;;14.20;;
12762;SDS011;6445;52.490;13.378;2023-04-15T07:49:00;14.15;;;12.13;;
12762;SDS011;6445;52.490;13.378;2023-04-15T07:51:25;18.38;;;13.40;;
12762;SDS011;6445;52.490;13.378;2023-04-15T07:53:50;18.50;;;13.73;;
12762;SDS011;6445;52.490;13.378;2023-04-15T07:56:15;18.38;;;13.52;;
12762;SDS011;6445;52.490;13.378;2023-04-15T07:58:41;15.68;;;12.98;;
12762;SDS011;6445;52.490;13.378;2023-04-15T08:01:07;16.48;;;14.43;;
12762;SDS011;6445;52.490;13.378;2023-04-15T08:03:33;15.38;;;12.57;;
12762;SDS011;6445;52.490;13.378;2023-04-15T08:05:58;17.05;;;13.38;;
12762;SDS011;6445;52.490;13.378;2023-04-15T08:08:23;15.15;;;12.63;;
12762;SDS011;6445;52.490;13.378;2023-04-15T08:10:49;16.30;;;13.50;;
12762;SDS011;6445;52.490;13.378;2023-04-15T08:13:15;16.67;;;13.35;;
12762;SDS011;6445;52.490;13.378;2023-04-15T08:15:41;30.70;;;23.88;;
12762;SDS011;6445;52.490;13.378;2023-04-15T08:18:06;18.30;;;16.17;;
12762;SDS011;6445;52.490;13.378;2023-04-15T08:20:31;15.52;;;13.60;;
12762;SDS011;6445;52.490;13.378;2023-04-15T08:22:57;16.23;;;13.68;;
12762;SDS011;6445;52.490;13.378;2023-04-15T08:25:22;18.42;;;13.65;;
12762;SDS011;6445;52.490;13.378;2023-04-15T08:27:47;16.55;;;13.40;;
12762;SDS011;6445;52.490;13.378;2023-04-15T08:30:12;16.95;;;13.43;;
12762;SDS011;6445;52.490;13.378;2023-04-15T08:32:38;16.83;;;13.68;;
12762;SDS011;6445;52.490;13.378;2023-04-15T08:35:03;16.17;;;13.73;;
12762;SDS011;6445;52.490;13.378;2023-04-15T08:37:29;17.10;;;13.82;;
12762;SDS011;6445;52.490;13.378;2023-04-15T08:39:55;14.95;;;12.88;;
12762;SDS011;6445;52.490;13.378;2023-04-15T08:42:22;16.25;;;14.40;;
12762;SDS011;6445;52.490;13.378;2023-04-15T08:44:55;17.48;;;14.18;;
12762;SDS011;6445;52.490;13.378;2023-04-15T08:47:20;19.65;;;15.00;;
12762;SDS011;6445;52.490;13.378;2023-04-15T08:49:51;18.20;;;13.80;;
12762;SDS011;6445;52.490;13.378;2023-04-15T08:52:19;17.50;;;14.25;;
12762;SDS011;6445;52.490;13.378;2023-04-15T08:54:45;17.17;;;14.75;;
12762;SDS011;6445;52.490;13.378;2023-04-15T08:57:10;18.08;;;15.27;;
12762;SDS011;6445;52.490;13.378;2023-04-15T08:59:36;18.20;;;16.00;;
12762;SDS011;6445;52.490;13.378;2023-04-15T09:02:02;17.48;;;15.18;;
12762;SDS011;6445;52.490;13.378;2023-04-15T09:04:29;16.38;;;14.68;;
12762;SDS011;6445;52.490;13.378;2023-04-15T09:06:55;18.38;;;15.85;;
12762;SDS011;6445;52.490;13.378;2023-04-15T09:09:21;19.10;;;16.02;;
12762;SDS011;6445;52.490;13.378;2023-04-15T09:11:46;20.42;;;15.57;;
12762;SDS011;6445;52.490;13.378;2023-04-15T09:14:13;18.52;;;15.13;;
12762;SDS011;6445;52.490;13.378;2023-04-15T09:16:54;18.77;;;15.32;;
12762;SDS011;6445;52.490;13.378;2023-04-15T09:19:24;17.60;;;15.20;;
12762;SDS011;6445;52.490;13.378;2023-04-15T09:21:51;45.72;;;36.75;;
12762;SDS011;6445;52.490;13.378;2023-04-15T09:24:18;17.20;;;15.27;;
12762;SDS011;6445;52.490;13.378;2023-04-15T09:26:44;21.98;;;16.20;;
12762;SDS011;6445;52.490;13.378;2023-04-15T09:29:10;18.08;;;15.65;;
12762;SDS011;6445;52.490;13.378;2023-04-15T09:31:38;16.38;;;14.60;;
12762;SDS011;6445;52.490;13.378;2023-04-15T09:34:04;17.08;;;14.55;;
12762;SDS011;6445;52.490;13.378;2023-04-15T09:39:11;19.90;;;14.15;;
12762;SDS011;6445;52.490;13.378;2023-04-15T09:41:36;17.35;;;14.82;;
12762;SDS011;6445;52.490;13.378;2023-04-15T09:44:02;15.63;;;13.52;;
12762;SDS011;6445;52.490;13.378;2023-04-15T09:46:44;15.88;;;14.27;;
12762;SDS011;6445;52.490;13.378;2023-04-15T09:49:10;17.08;;;13.70;;
12762;SDS011;6445;52.490;13.378;2023-04-15T09:51:36;16.52;;;13.77;;
12762;SDS011;6445;52.490;13.378;2023-04-15T09:54:02;15.20;;;13.60;;
12762;SDS011;6445;52.490;13.378;2023-04-15T09:56:35;19.00;;;14.88;;
12762;SDS011;6445;52.490;13.378;2023-04-15T09:59:02;18.23;;;14.10;;
12762;SDS011;6445;52.490;13.378;2023-04-15T10:01:29;18.65;;;14.38;;
12762;SDS011;6445;52.490;13.378;2023-04-15T10:03:55;15.80;;;14.07;;
12762;SDS011;6445;52.490;13.378;2023-04-15T10:06:22;16.45;;;14.75;;
12762;SDS011;6445;52.490;13.378;2023-04-15T10:08:50;16.65;;;14.13;;
12762;SDS011;6445;52.490;13.378;2023-04-15T10:11:16;17.80;;;14.38;;
12762;SDS011;6445;52.490;13.378;2023-04-15T10:13:42;17.00;;;14.95;;
12762;SDS011;6445;52.490;13.378;2023-04-15T10:16:15;17.40;;;14.43;;
12762;SDS011;6445;52.490;13.378;2023-04-15T10:18:43;16.65;;;13.68;;
12762;SDS011;6445;52.490;13.378;2023-04-15T10:21:10;16.85;;;14.50;;
12762;SDS011;6445;52.490;13.378;2023-04-15T10:23:38;15.23;;;13.68;;
12762;SDS011;6445;52.490;13.378;2023-04-15T10:26:03;15.55;;;13.95;;
12762;SDS011;6445;52.490;13.378;2023-04-15T10:28:30;17.77;;;15.23;;
12762;SDS011;6445;52.490;13.378;2023-04-15T10:30:55;15.88;;;14.13;;
12762;SDS011;6445;52.490;13.378;2023-04-15T10:33:21;16.92;;;15.07;;
12762;SDS011;6445;52.490;13.378;2023-04-15T10:35:48;30.45;;;21.83;;
12762;SDS011;6445;52.490;13.378;2023-04-15T10:38:35;16.00;;;13.35;;
12762;SDS011;6445;52.490;13.378;2023-04-15T10:43:49;15.32;;;13.45;;
12762;SDS011;6445;52.490;13.378;2023-04-15T10:46:38;16.55;;;14.27;;
12762;SDS011;6445;52.490;13.378;2023-04-15T10:49:10;14.68;;;13.18;;
12762;SDS011;6445;52.490;13.378;2023-04-15T10:51:40;14.75;;;13.02;;
12762;SDS011;6445;52.490;13.378;2023-04-15T10:54:13;16.23;;;14.52;;
12762;SDS011;6445;52.490;13.378;2023-04-15T10:59:29;13.52;;;12.13;;
12762;SDS011;6445;52.490;13.378;2023-04-15T11:02:25;15.23;;;13.38;;
12762;SDS011;6445;52.490;13.378;2023-04-15T11:05:06;15.18;;;13.57;;
12762;SDS011;6445;52.490;13.378;2023-04-15T11:07:33;14.52;;;13.02;;
12762;SDS011;6445;52.490;13.378;2023-04-15T11:12:41;18.25;;;13.45;;
12762;SDS011;6445;52.490;13.378;2023-04-15T11:20:42;16.02;;;14.32;;
12762;SDS011;6445;52.490;13.378;2023-04-15T11:23:09;17.10;;;14.32;;
12762;SDS011;6445;52.490;13.378;2023-04-15T11:25:35;17.33;;;14.10;;
12762;SDS011;6445;52.490;13.378;2023-04-15T11:28:03;15.48;;;13.88;;
12762;SDS011;6445;52.490;13.378;2023-04-15T11:30:30;16.95;;;13.77;;
12762;SDS011;6445;52.490;13.378;2023-04-15T11:32:58;16.00;;;13.82;;
12762;SDS011;6445;52.490;13.378;2023-04-15T11:35:24;16.15;;;13.55;;
12762;SDS011;6445;52.490;13.378;2023-04-15T11:37:49;15.05;;;13.40;;
12762;SDS011;6445;52.490;13.378;2023-04-15T11:40:15;19.05;;;14.95;;
12762;SDS011;6445;52.490;13.378;2023-04-15T11:42:46;16.38;;;13.77;;
12762;SDS011;6445;52.490;13.378;2023-04-15T11:45:12;16.42;;;14.40;;
12762;SDS011;6445;52.490;13.378;2023-04-15T11:47:39;16.98;;;15.02;;
12762;SDS011;6445;52.490;13.378;2023-04-15T11:52:54;18.55;;;14.95;;
12762;SDS011;6445;52.490;13.378;2023-04-15T11:55:20;16.50;;;14.80;;
12762;SDS011;6445;52.490;13.378;2023-04-15T11:57:47;17.83;;;14.32;;
12762;SDS011;6445;52.490;13.378;2023-04-15T12:00:13;19.13;;;14.18;;
12762;SDS011;6445;52.490;13.378;2023-04-15T12:02:39;17.48;;;13.73;;
12762;SDS011;6445;52.490;13.378;2023-04-15T12:05:05;17.10;;;14.20;;
12762;SDS011;6445;52.490;13.378;2023-04-15T12:07:30;17.65;;;15.32;;
12762;SDS011;6445;52.490;13.378;2023-04-15T12:09:56;18.45;;;14.27;;
12762;SDS011;6445;52.490;13.378;2023-04-15T12:12:26;17.83;;;14.45;;
12762;SDS011;6445;52.490;13.378;2023-04-15T12:14:52;18.15;;;14.25;;
12762;SDS011;6445;52.490;13.378;2023-04-15T12:17:17;15.25;;;13.43;;
12762;SDS011;6445;52.490;13.378;2023-04-15T12:19:43;14.95;;;13.35;;
12762;SDS011;6445;52.490;13.378;2023-04-15T12:22:13;18.08;;;14.43;;
12762;SDS011;6445;52.490;13.378;2023-04-15T12:24:40;16.90;;;14.75;;
12762;SDS011;6445;52.490;13.378;2023-04-15T12:27:13;14.35;;;12.85;;
12762;SDS011;6445;52.490;13.378;2023-04-15T12:29:41;15.90;;;13.52;;
12762;SDS011;6445;52.490;13.378;2023-04-15T12:32:08;15.27;;;13.73;;
12762;SDS011;6445;52.490;13.378;2023-04-15T12:34:51;15.60;;;13.20;;
12762;SDS011;6445;52.490;13.378;2023-04-15T12:37:18;17.60;;;13.68;;
12762;SDS011;6445;52.490;13.378;2023-04-15T12:39:44;14.32;;;12.70;;
12762;SDS011;6445;52.490;13.378;2023-04-15T12:42:13;15.43;;;13.13;;
12762;SDS011;6445;52.490;13.378;2023-04-15T12:44:39;14.45;;;12.15;;
12762;SDS011;6445;52.490;13.378;2023-04-15T12:47:04;14.23;;;12.75;;
12762;SDS011;6445;52.490;13.378;2023-04-15T12:49:31;15.20;;;13.15;;
12762;SDS011;6445;52.490;13.378;2023-04-15T12:51:57;13.43;;;11.88;;
12762;SDS011;6445;52.490;13.378;2023-04-15T12:54:24;13.13;;;11.65;;
12762;SDS011;6445;52.490;13.378;2023-04-15T12:56:51;15.82;;;12.85;;
12762;SDS011;6445;52.490;13.378;2023-04-15T12:59:16;14.68;;;12.32;;
12762;SDS011;6445;52.490;13.378;2023-04-15T13:01:42;14.57;;;12.60;;
12762;SDS011;6445;52.490;13.378;2023-04-15T13:04:08;17.67;;;12.30;;
12762;SDS011;6445;52.490;13.378;2023-04-15T13:06:34;16.98;;;13.57;;
12762;SDS011;6445;52.490;13.378;2023-04-15T13:09:00;16.23;;;13.60;;
12762;SDS011;6445;52.490;13.378;2023-04-15T13:11:26;15.50;;;13.50;;
12762;SDS011;6445;52.490;13.378;2023-04-15T13:13:54;15.63;;;13.38;;
12762;SDS011;6445;52.490;13.378;2023-04-15T13:16:20;15.00;;;11.88;;
12762;SDS011;6445;52.490;13.378;2023-04-15T13:18:47;12.57;;;11.27;;
12762;SDS011;6445;52.490;13.378;2023-04-15T13:21:12;15.88;;;12.27;;
12762;SDS011;6445;52.490;13.378;2023-04-15T13:23:37;12.25;;;10.98;;
12762;SDS011;6445;52.490;13.378;2023-04-15T13:26:03;11.68;;;10.20;;
12762;SDS011;6445;52.490;13.378;2023-04-15T13:28:28;12.43;;;10.88;;
12762;SDS011;6445;52.490;13.378;2023-04-15T13:30:54;12.52;;;10.95;;
12762;SDS011;6445;52.490;13.378;2023-04-15T13:33:19;12.60;;;11.30;;
12762;SDS011;6445;52.490;13.378;2023-04-15T13:35:45;12.70;;;11.40;;
12762;SDS011;6445;52.490;13.378;2023-04-15T13:38:10;12.23;;;11.00;;
12762;SDS011;6445;52.490;13.378;2023-04-15T13:40:35;13.63;;;11.57;;
12762;SDS011;6445;52.490;13.378;2023-04-15T13:43:00;13.20;;;11.40;;
12762;SDS011;6445;52.490;13.378;2023-04-15T13:45:27;13.57;;;11.52;;
12762;SDS011;6445;52.490;13.378;2023-04-15T13:47:52;13.20;;;11.40;;
12762;SDS011;6445;52.490;13.378;2023-04-15T13:50:19;12.35;;;11.05;;
12762;SDS011;6445;52.490;13.378;2023-04-15T13:52:44;11.70;;;10.45;;
12762;SDS011;6445;52.490;13.378;2023-04-15T13:55:09;12.25;;;10.35;;
12762;SDS011;6445;52.490;13.378;2023-04-15T13:57:35;14.02;;;12.40;;
12762;SDS011;6445;52.490;13.378;2023-04-15T14:00:01;13.63;;;12.05;;
12762;SDS011;6445;52.490;13.378;2023-04-15T14:02:27;12.30;;;10.50;;
12762;SDS011;6445;52.490;13.378;2023-04-15T14:04:53;12.32;;;10.93;;
12762;SDS011;6445;52.490;13.378;2023-04-15T14:07:18;11.40;;;10.20;;
12762;SDS011;6445;52.490;13.378;2023-04-15T14:09:43;12.13;;;10.02;;
12762;SDS011;6445;52.490;13.378;2023-04-15T14:12:08;10.70;;;9.48;;
12762;SDS011;6445;52.490;13.378;2023-04-15T14:14:35;13.68;;;9.70;;
12762;SDS011;6445;52.490;13.378;2023-04-15T14:17:00;13.35;;;11.25;;
12762;SDS011;6445;52.490;13.378;2023-04-15T14:19:26;12.80;;;10.80;;
12762;SDS011;6445;52.490;13.378;2023-04-15T14:21:54;12.93;;;10.25;;
12762;SDS011;6445;52.490;13.378;2023-04-15T14:24:20;11.93;;;10.10;;
12762;SDS011;6445;52.490;13.378;2023-04-15T14:26:45;11.23;;;9.90;;
12762;SDS011;6445;52.490;13.378;2023-04-15T14:29:10;11.07;;;9.45;;
12762;SDS011;6445;52.490;13.378;2023-04-15T14:31:36;10.32;;;9.32;;
12762;SDS011;6445;52.490;13.378;2023-04-15T14:34:01;10.60;;;9.50;;